Time;durP1;ratioP1;P1;durP2;ratioP2;P2;SDS_P1;SDS_P2;PMS_P1;PMS_P2;Temp;Humidity;BMP_temperature;BMP_pressure;BME280_temperature;BME280_humidity;BME280_pressure;Samples;Min_cycle;Max_cycle;Signal;HPM_P1;HPM_P2
2022/09/07 00:01:07;;;;;;;5.67;2.10;;;;;;;13.59;100.00;100845.31;5013297;28;20206;-73
2022/09/07 00:03:34;;;;;;;2.53;1.80;;;;;;;13.56;100.00;100837.59;5004895;28;20696;-73
2022/09/07 00:06:06;;;;;;;2.43;1.83;;;;;;;13.52;100.00;100840.38;5012487;28;20286;-73
2022/09/07 00:08:33;;;;;;;2.00;1.80;;;;;;;13.53;100.00;100836.84;5020409;28;20236;-73
2022/09/07 00:11:01;;;;;;;2.50;1.73;;;;;;;13.47;100.00;100837.88;5010454;28;20208;-73
2022/09/07 00:13:29;;;;;;;2.37;2.00;;;;;;;13.44;100.00;100836.25;5029181;28;20227;-73
2022/09/07 00:15:57;;;;;;;4.10;1.90;;;;;;;13.42;100.00;100837.19;5026187;28;20211;-73
2022/09/07 00:18:25;;;;;;;2.90;1.90;;;;;;;13.39;100.00;100843.41;5035498;28;20251;-73
2022/09/07 00:20:58;;;;;;;3.27;1.87;;;;;;;13.36;100.00;100840.03;5020687;28;20268;-73
2022/09/07 00:23:25;;;;;;;2.03;1.70;;;;;;;13.35;100.00;100830.47;5008445;28;20260;-74
2022/09/07 00:25:52;;;;;;;2.77;2.00;;;;;;;13.28;100.00;100829.81;5014034;28;20679;-72
2022/09/07 00:28:18;;;;;;;2.27;1.90;;;;;;;13.27;100.00;100828.09;5005973;28;20267;-73
2022/09/07 00:30:45;;;;;;;3.77;2.10;;;;;;;13.26;100.00;100834.22;5007323;28;20264;-72
2022/09/07 00:33:12;;;;;;;4.23;2.00;;;;;;;13.22;100.00;100825.59;5012076;28;20258;-72
2022/09/07 00:35:42;;;;;;;2.57;1.83;;;;;;;13.20;100.00;100819.56;5008906;28;20251;-73
2022/09/07 00:38:09;;;;;;;3.00;1.83;;;;;;;13.18;100.00;100817.94;5009975;28;20306;-72
2022/09/07 00:40:36;;;;;;;2.70;1.80;;;;;;;13.18;100.00;100813.53;5027415;28;20253;-73
2022/09/07 00:43:04;;;;;;;2.23;1.60;;;;;;;13.15;100.00;100818.03;5012016;28;20308;-73
2022/09/07 00:45:31;;;;;;;4.57;1.90;;;;;;;13.12;100.00;100812.88;5012738;28;20196;-73
2022/09/07 00:48:02;;;;;;;2.67;1.80;;;;;;;13.08;100.00;100815.59;5010263;28;20220;-73
2022/09/07 00:50:33;;;;;;;3.03;2.20;;;;;;;13.03;100.00;100821.91;5010627;28;20200;-73
2022/09/07 00:53:05;;;;;;;2.33;1.93;;;;;;;12.97;100.00;100827.34;5013643;28;20223;-73
2022/09/07 00:55:33;;;;;;;3.37;2.10;;;;;;;12.93;100.00;100815.25;5027379;28;20239;-73
2022/09/07 00:58:00;;;;;;;3.87;1.90;;;;;;;12.88;100.00;100812.81;5011029;28;20235;-73
2022/09/07 01:00:28;;;;;;;2.77;2.00;;;;;;;12.83;100.00;100812.09;5004933;28;20208;-72
2022/09/07 01:02:57;;;;;;;3.73;2.07;;;;;;;12.79;100.00;100813.13;5014319;28;20321;-73
2022/09/07 01:05:29;;;;;;;4.97;1.73;;;;;;;12.80;100.00;100809.56;5018482;28;20200;-72
2022/09/07 01:07:57;;;;;;;3.63;2.10;;;;;;;12.74;100.00;100801.94;5018446;28;20216;-73
2022/09/07 01:10:29;;;;;;;1.80;1.67;;;;;;;12.73;100.00;100801.06;5002199;28;20621;-73
2022/09/07 01:12:56;;;;;;;1.97;1.63;;;;;;;12.69;100.00;100800.31;5003980;28;20224;-73
2022/09/07 01:15:29;;;;;;;2.50;1.80;;;;;;;12.64;100.00;100804.81;4999976;28;20199;-73
2022/09/07 01:18:03;;;;;;;2.70;2.00;;;;;;;12.61;100.00;100799.72;5008650;28;20638;-73
2022/09/07 01:20:49;;;;;;;3.73;2.07;;;;;;;12.55;100.00;100805.13;5013459;28;20203;-73
2022/09/07 01:23:41;;;;;;;3.03;1.87;;;;;;;12.53;100.00;100806.09;5010656;28;20201;-71
2022/09/07 01:26:56;;;;;;;3.70;2.20;;;;;;;12.50;100.00;100800.06;5002704;28;20226;-73
2022/09/07 01:29:32;;;;;;;2.20;1.90;;;;;;;12.52;100.00;100797.38;4924105;29;20707;-74
2022/09/07 01:32:08;;;;;;;3.07;2.10;;;;;;;12.48;100.00;100799.22;4928990;29;20297;-72
2022/09/07 01:34:37;;;;;;;2.60;1.63;;;;;;;12.44;100.00;100802.84;4967148;28;20223;-73
2022/09/07 01:37:13;;;;;;;2.93;1.97;;;;;;;12.40;100.00;100793.41;5032907;28;20206;-73
2022/09/07 01:39:47;;;;;;;5.33;2.20;;;;;;;12.38;100.00;100794.34;5012389;28;20195;-74
2022/09/07 01:42:18;;;;;;;1.70;1.60;;;;;;;12.36;100.00;100798.75;5011108;28;20215;-73
2022/09/07 01:44:50;;;;;;;2.63;1.87;;;;;;;12.37;100.00;100797.88;5029402;28;20206;-73
2022/09/07 01:47:21;;;;;;;4.90;2.30;;;;;;;12.35;100.00;100800.53;5014740;28;20230;-73
2022/09/07 01:49:52;;;;;;;2.37;1.97;;;;;;;12.31;100.00;100791.91;5016914;28;20447;-73
2022/09/07 01:52:25;;;;;;;2.23;1.80;;;;;;;12.29;100.00;100795.47;5006473;28;20595;-73
2022/09/07 01:54:58;;;;;;;2.60;1.97;;;;;;;12.31;100.00;100797.16;5027311;28;20665;-73
2022/09/07 01:57:30;;;;;;;2.53;2.00;;;;;;;12.34;100.00;100790.09;5003235;28;20586;-73
2022/09/07 02:00:04;;;;;;;3.70;1.50;;;;;;;12.32;100.00;100791.00;5027240;28;20625;-73
2022/09/07 02:02:45;;;;;;;3.73;2.00;;;;;;;12.34;100.00;100787.50;5013195;28;20391;-73
2022/09/07 02:05:17;;;;;;;3.00;1.90;;;;;;;12.35;100.00;100789.19;5003828;28;20235;-73
2022/09/07 02:07:48;;;;;;;2.77;1.93;;;;;;;12.33;100.00;100784.03;5010424;28;20283;-73
2022/09/07 02:10:18;;;;;;;2.60;2.07;;;;;;;12.34;100.00;100783.13;5025838;28;20226;-73
2022/09/07 02:12:50;;;;;;;2.40;1.87;;;;;;;12.29;100.00;100778.03;5025861;28;20205;-71
2022/09/07 02:15:21;;;;;;;2.23;2.00;;;;;;;12.26;100.00;100772.91;5017455;28;20199;-73
2022/09/07 02:17:52;;;;;;;3.47;2.30;;;;;;;12.23;100.00;100767.75;5030782;28;20323;-74
2022/09/07 02:20:23;;;;;;;3.50;2.27;;;;;;;12.24;100.00;100768.59;5008002;28;20267;-73
2022/09/07 02:22:56;;;;;;;2.47;2.13;;;;;;;12.22;100.00;100771.25;5011364;28;20252;-73
2022/09/07 02:25:27;;;;;;;2.40;2.10;;;;;;;12.21;100.00;100768.72;5011062;28;20242;-73
2022/09/07 02:27:58;;;;;;;2.30;2.10;;;;;;;12.20;100.00;100777.47;5021132;28;20224;-73
2022/09/07 02:30:27;;;;;;;3.23;2.00;;;;;;;12.20;100.00;100765.22;5007114;28;20241;-72
2022/09/07 02:32:55;;;;;;;3.27;2.33;;;;;;;12.20;100.00;100767.00;5000878;28;20238;-73
2022/09/07 02:35:21;;;;;;;2.37;1.80;;;;;;;12.22;100.00;100768.66;5012811;28;20199;-73
2022/09/07 02:37:50;;;;;;;3.27;1.73;;;;;;;12.21;100.00;100764.34;5021307;28;20220;-72
2022/09/07 02:40:17;;;;;;;2.87;1.90;;;;;;;12.21;100.00;100756.50;5011584;28;20214;-73
2022/09/07 02:42:47;;;;;;;3.27;2.10;;;;;;;12.22;100.00;100763.44;5030036;28;20323;-73
2022/09/07 02:45:16;;;;;;;2.93;1.90;;;;;;;12.24;100.00;100764.25;5029957;28;20225;-73
2022/09/07 02:48:06;;;;;;;4.70;2.07;;;;;;;12.21;100.00;100764.34;5018927;28;20305;-72
2022/09/07 02:51:01;;;;;;;5.03;2.13;;;;;;;12.22;100.00;100759.97;5014733;28;20202;-71
2022/09/07 02:53:47;;;;;;;3.23;2.20;;;;;;;12.18;100.00;100753.97;5016479;28;20212;-72
2022/09/07 02:56:26;;;;;;;2.23;1.90;;;;;;;12.19;100.00;100749.59;5010443;28;20211;-73
2022/09/07 02:59:03;;;;;;;2.73;2.00;;;;;;;12.17;100.00;100752.28;5021813;28;20319;-72
2022/09/07 03:01:36;;;;;;;2.20;2.00;;;;;;;12.16;100.00;100750.56;5012237;28;20205;-74
2022/09/07 03:04:10;;;;;;;3.70;1.97;;;;;;;12.16;100.00;100745.34;5019193;28;20218;-72
2022/09/07 03:06:41;;;;;;;3.77;2.13;;;;;;;12.11;100.00;100750.69;5024267;28;20199;-73
2022/09/07 03:09:15;;;;;;;4.57;2.50;;;;;;;12.11;100.00;100744.63;5019694;28;20212;-73
2022/09/07 03:11:42;;;;;;;3.13;2.10;;;;;;;12.08;100.00;100744.69;5017886;28;20204;-73
2022/09/07 03:14:17;;;;;;;3.93;2.13;;;;;;;12.07;100.00;100749.06;5014441;28;20218;-73
2022/09/07 03:16:45;;;;;;;4.90;2.20;;;;;;;12.05;100.00;100747.44;5005077;28;20335;-73
2022/09/07 03:19:13;;;;;;;3.53;2.10;;;;;;;12.04;100.00;100745.72;5008726;28;20899;-74
2022/09/07 03:21:40;;;;;;;2.47;1.97;;;;;;;12.03;100.00;100743.97;5009448;28;20199;-73
2022/09/07 03:24:06;;;;;;;4.40;2.30;;;;;;;12.01;100.00;100733.56;5003738;28;20244;-74
2022/09/07 03:26:35;;;;;;;2.90;1.97;;;;;;;12.01;100.00;100730.13;5003441;28;20684;-73
2022/09/07 03:29:01;;;;;;;4.80;2.37;;;;;;;11.99;100.00;100731.91;5024400;28;20222;-74
2022/09/07 03:31:28;;;;;;;2.63;2.37;;;;;;;11.96;100.00;100740.72;5001402;28;20612;-73
2022/09/07 03:33:55;;;;;;;4.07;2.30;;;;;;;11.90;100.00;100736.50;5012142;28;20221;-73
2022/09/07 03:36:23;;;;;;;2.80;1.97;;;;;;;11.87;100.00;100741.81;5028978;28;20204;-73
2022/09/07 03:38:50;;;;;;;3.13;1.87;;;;;;;11.88;100.00;100740.06;5012452;28;20319;-72
2022/09/07 03:41:17;;;;;;;2.73;2.10;;;;;;;11.86;100.00;100736.63;4997965;28;20599;-73
2022/09/07 03:43:43;;;;;;;3.23;2.10;;;;;;;11.83;100.00;100736.72;5028315;28;20208;-74
2022/09/07 03:46:10;;;;;;;2.10;1.70;;;;;;;11.78;100.00;100741.22;5014960;28;20298;-72
2022/09/07 03:48:38;;;;;;;2.30;1.77;;;;;;;11.77;100.00;100735.16;5022469;28;20214;-73
2022/09/07 03:51:07;;;;;;;4.23;2.50;;;;;;;11.74;100.00;100745.69;5020653;28;20207;-73
2022/09/07 03:53:37;;;;;;;4.47;2.60;;;;;;;11.72;100.00;100744.88;5022952;28;20241;-73
2022/09/07 03:56:06;;;;;;;3.43;2.20;;;;;;;11.70;100.00;100744.06;5004669;28;20244;-73
2022/09/07 03:58:34;;;;;;;2.80;2.20;;;;;;;11.67;100.00;100737.16;4999316;28;20259;-73
2022/09/07 04:01:05;;;;;;;3.77;2.10;;;;;;;11.63;100.00;100748.59;5012610;28;20215;-71
2022/09/07 04:03:32;;;;;;;2.93;2.20;;;;;;;11.64;100.00;100745.06;5027162;28;20257;-74
2022/09/07 04:05:59;;;;;;;4.60;2.30;;;;;;;11.58;100.00;100741.81;5025704;28;20635;-73
2022/09/07 04:08:26;;;;;;;3.53;2.17;;;;;;;11.54;100.00;100749.72;4998288;28;20344;-73
2022/09/07 04:10:56;;;;;;;3.70;2.10;;;;;;;11.52;100.00;100748.03;5004857;28;20213;-72
2022/09/07 04:13:22;;;;;;;6.33;2.23;;;;;;;11.51;100.00;100748.94;5015037;28;20213;-73
2022/09/07 04:15:49;;;;;;;2.80;2.13;;;;;;;11.52;100.00;100748.91;5024426;28;20206;-73
2022/09/07 04:18:16;;;;;;;3.40;2.47;;;;;;;11.50;100.00;100748.09;5005764;28;20223;-73
2022/09/07 04:20:43;;;;;;;4.73;2.30;;;;;;;11.50;100.00;100748.09;5002888;28;20204;-74
2022/09/07 04:23:10;;;;;;;3.60;2.23;;;;;;;11.53;100.00;100752.38;5020189;28;20669;-72
2022/09/07 04:25:36;;;;;;;6.17;2.30;;;;;;;11.56;100.00;100753.13;5018328;28;20207;-74
2022/09/07 04:28:05;;;;;;;2.37;2.17;;;;;;;11.56;100.00;100747.06;5000028;28;20224;-73
2022/09/07 04:30:34;;;;;;;3.27;2.10;;;;;;;11.52;100.00;100751.53;5031477;28;20729;-74
2022/09/07 04:33:01;;;;;;;2.47;2.10;;;;;;;11.59;100.00;100740.88;5010955;28;20204;-74
2022/09/07 04:35:27;;;;;;;2.57;2.20;;;;;;;11.53;100.00;100741.94;5012366;28;20215;-74
2022/09/07 04:37:54;;;;;;;3.07;2.17;;;;;;;11.51;100.00;100749.78;5005886;28;20220;-73
2022/09/07 04:40:21;;;;;;;2.40;1.90;;;;;;;11.54;100.00;100735.81;5011636;28;20199;-73
2022/09/07 04:42:47;;;;;;;4.13;2.70;;;;;;;11.52;100.00;100742.81;5027561;28;20285;-74
2022/09/07 04:45:16;;;;;;;2.77;2.10;;;;;;;11.53;100.00;100753.22;5000502;28;20226;-74
2022/09/07 04:47:47;;;;;;;3.27;2.10;;;;;;;11.60;100.00;100753.91;5010407;28;20231;-74
2022/09/07 04:50:23;;;;;;;4.07;2.20;;;;;;;11.59;100.00;100748.72;5015131;28;20205;-73
2022/09/07 04:52:50;;;;;;;2.80;2.27;;;;;;;11.61;100.00;100746.91;5019813;28;20215;-73
2022/09/07 04:55:17;;;;;;;3.07;2.10;;;;;;;11.61;100.00;100741.69;5012504;28;20770;-74
2022/09/07 04:57:44;;;;;;;4.27;2.23;;;;;;;11.61;100.00;100732.13;5007401;28;20275;-74
2022/09/07 05:00:12;;;;;;;3.67;2.40;;;;;;;11.62;100.00;100727.75;5009229;28;20450;-74
2022/09/07 05:02:40;;;;;;;2.60;2.07;;;;;;;11.61;100.00;100733.84;5003831;28;20203;-74
2022/09/07 05:05:07;;;;;;;3.73;2.90;;;;;;;11.62;100.00;100740.81;5010889;28;20195;-73
2022/09/07 05:07:33;;;;;;;4.57;2.50;;;;;;;11.66;100.00;100735.47;5007309;28;20231;-73
2022/09/07 05:10:00;;;;;;;3.47;2.40;;;;;;;11.66;100.00;100743.28;5007893;28;20198;-73
2022/09/07 05:12:27;;;;;;;4.17;2.53;;;;;;;11.66;100.00;100735.47;5004799;28;20200;-74
2022/09/07 05:14:54;;;;;;;3.27;1.90;;;;;;;11.70;100.00;100739.69;5010046;28;20244;-73
2022/09/07 05:17:21;;;;;;;4.43;2.30;;;;;;;11.73;100.00;100728.28;5008108;28;20196;-72
2022/09/07 05:19:49;;;;;;;3.07;2.37;;;;;;;11.73;100.00;100726.53;5016902;28;20195;-74
2022/09/07 05:22:15;;;;;;;3.30;2.30;;;;;;;11.79;100.00;100727.28;5018483;28;20270;-74
2022/09/07 05:24:42;;;;;;;7.17;2.63;;;;;;;11.81;100.00;100723.69;5020425;28;20229;-73
2022/09/07 05:27:08;;;;;;;3.37;2.40;;;;;;;11.84;100.00;100730.59;5003895;28;20303;-73
2022/09/07 05:29:35;;;;;;;4.90;2.27;;;;;;;11.88;100.00;100727.84;5007045;28;20699;-73
2022/09/07 05:32:02;;;;;;;3.00;2.23;;;;;;;11.96;100.00;100726.78;5011597;28;20207;-73
2022/09/07 05:34:28;;;;;;;4.10;2.53;;;;;;;11.99;100.00;100724.09;5013052;28;20218;-73
2022/09/07 05:36:56;;;;;;;3.67;2.47;;;;;;;12.04;100.00;100730.88;5024957;28;20276;-73
2022/09/07 05:39:24;;;;;;;3.70;2.60;;;;;;;12.10;100.00;100721.97;5007952;28;20224;-74
2022/09/07 05:41:53;;;;;;;5.23;3.00;;;;;;;12.14;100.00;100731.47;5009137;28;20209;-74
2022/09/07 05:44:26;;;;;;;4.60;2.70;;;;;;;12.19;100.00;100734.78;5031633;28;20579;-74
2022/09/07 05:46:54;;;;;;;3.87;2.53;;;;;;;12.26;100.00;100736.31;5012846;28;20203;-71
2022/09/07 05:49:21;;;;;;;2.73;2.13;;;;;;;12.37;100.00;100732.50;5019928;28;20223;-74
2022/09/07 05:51:48;;;;;;;4.07;2.60;;;;;;;12.43;100.00;100730.53;5026384;28;20199;-74
2022/09/07 05:54:16;;;;;;;5.77;2.37;;;;;;;12.52;100.00;100736.38;5011835;28;20318;-71
2022/09/07 05:56:43;;;;;;;3.27;2.43;;;;;;;12.57;100.00;100737.94;5005160;28;20234;-73
2022/09/07 05:59:10;;;;;;;4.47;2.83;;;;;;;12.63;100.00;100731.66;5014844;28;20709;-74
2022/09/07 06:01:37;;;;;;;3.33;2.50;;;;;;;12.70;100.00;100735.78;5013145;28;20231;-71
2022/09/07 06:04:04;;;;;;;3.87;2.47;;;;;;;12.79;100.00;100735.47;5007719;28;20211;-74
2022/09/07 06:06:31;;;;;;;4.33;2.77;;;;;;;12.87;100.00;100730.84;5011757;28;20513;-74
2022/09/07 06:08:58;;;;;;;4.03;2.60;;;;;;;12.94;100.00;100733.22;5017807;28;20612;-73
2022/09/07 06:11:26;;;;;;;4.10;2.23;;;;;;;13.02;100.00;100734.69;5006248;28;20641;-73
2022/09/07 06:13:53;;;;;;;2.80;2.47;;;;;;;13.11;100.00;100743.13;5027813;28;20231;-73
2022/09/07 06:16:21;;;;;;;7.60;2.97;;;;;;;13.18;100.00;100737.63;5013041;28;20196;-74
2022/09/07 06:18:49;;;;;;;3.53;2.37;;;;;;;13.31;100.00;100737.19;5020064;28;20248;-72
2022/09/07 06:21:18;;;;;;;4.30;2.10;;;;;;;13.42;100.00;100735.06;5014376;28;20197;-73
2022/09/07 06:23:46;;;;;;;3.13;2.30;;;;;;;13.50;100.00;100732.19;5014541;28;20255;-74
2022/09/07 06:26:14;;;;;;;3.20;2.57;;;;;;;13.56;100.00;100735.44;5022299;28;20572;-73
2022/09/07 06:28:45;;;;;;;4.47;2.83;;;;;;;13.64;100.00;100729.91;5026377;28;20232;-73
2022/09/07 06:31:13;;;;;;;4.13;2.70;;;;;;;13.70;100.00;100732.31;5011611;28;20217;-74
2022/09/07 06:33:41;;;;;;;6.47;3.37;;;;;;;13.79;100.00;100726.72;5013540;28;20534;-72
2022/09/07 06:36:12;;;;;;;3.67;2.70;;;;;;;13.90;100.00;100720.22;5028866;28;20251;-70
2022/09/07 06:38:40;;;;;;;4.20;3.03;;;;;;;14.02;100.00;100720.56;5009089;28;20220;-69
2022/09/07 06:41:09;;;;;;;4.17;3.00;;;;;;;14.09;100.00;100718.56;5009205;28;20332;-73
2022/09/07 06:43:36;;;;;;;4.37;2.77;;;;;;;14.18;100.00;100718.22;5014555;28;20204;-70
2022/09/07 06:46:04;;;;;;;3.27;2.73;;;;;;;14.27;100.00;100717.00;5018716;28;20215;-72
2022/09/07 06:48:32;;;;;;;4.60;3.10;;;;;;;14.38;100.00;100719.19;5012595;28;20703;-70
2022/09/07 06:51:01;;;;;;;3.23;2.67;;;;;;;14.50;100.00;100723.91;5025787;28;20658;-72
2022/09/07 06:53:31;;;;;;;5.53;3.17;;;;;;;14.59;100.00;100733.22;5013545;28;20201;-74
2022/09/07 06:55:58;;;;;;;5.97;3.13;;;;;;;14.67;100.00;100725.91;5010823;28;20287;-72
2022/09/07 06:58:25;;;;;;;5.27;2.87;;;;;;;14.75;100.00;100731.66;5018544;28;20224;-72
2022/09/07 07:00:53;;;;;;;4.67;2.60;;;;;;;14.83;100.00;100731.34;5012697;28;20249;-70
2022/09/07 07:03:21;;;;;;;5.10;2.77;;;;;;;14.98;100.00;100734.25;5010782;28;20196;-70
2022/09/07 07:05:52;;;;;;;5.03;3.30;;;;;;;15.05;100.00;100727.81;5010319;28;20231;-72
2022/09/07 07:08:19;;;;;;;5.10;3.20;;;;;;;15.12;100.00;100731.88;5005419;28;20241;-70
2022/09/07 07:10:46;;;;;;;4.50;2.80;;;;;;;15.21;100.00;100730.63;5001176;28;20672;-72
2022/09/07 07:13:12;;;;;;;3.13;2.60;;;;;;;15.31;100.00;100730.13;5007824;28;20342;-74
2022/09/07 07:15:39;;;;;;;3.20;2.70;;;;;;;15.42;100.00;100728.81;5008124;28;20771;-75
2022/09/07 07:18:06;;;;;;;6.50;2.87;;;;;;;15.51;100.00;100720.50;5008091;28;20263;-74
2022/09/07 07:20:36;;;;;;;6.63;3.60;;;;;;;15.61;100.00;100721.81;5005187;28;20596;-72
2022/09/07 07:23:03;;;;;;;3.37;2.60;;;;;;;15.71;100.00;100724.88;5005728;28;20214;-72
2022/09/07 07:25:30;;;;;;;3.27;2.60;;;;;;;15.84;100.00;100712.03;5003966;28;20200;-71
2022/09/07 07:27:57;;;;;;;7.50;3.00;;;;;;;15.94;100.00;100715.09;5006373;28;20239;-71
2022/09/07 07:30:23;;;;;;;4.83;3.27;;;;;;;16.08;100.00;100702.16;5027443;28;20227;-71
2022/09/07 07:32:50;;;;;;;4.03;2.83;;;;;;;16.20;100.00;100709.44;5011195;28;20291;-72
2022/09/07 07:35:17;;;;;;;3.43;2.93;;;;;;;16.34;100.00;100705.28;5011868;28;20212;-72
2022/09/07 07:37:46;;;;;;;3.73;2.67;;;;;;;16.40;100.00;100711.09;5021493;28;20225;-73
2022/09/07 07:40:14;;;;;;;3.87;2.73;;;;;;;16.53;100.00;100710.50;5009750;28;20201;-72
2022/09/07 07:42:40;;;;;;;4.57;2.73;;;;;;;16.66;100.00;100709.81;5001626;28;20684;-71
2022/09/07 07:45:08;;;;;;;4.67;3.20;;;;;;;16.84;100.00;100715.13;5005226;28;20617;-71
2022/09/07 07:47:35;;;;;;;3.87;2.87;;;;;;;17.00;100.00;100717.81;5003654;28;20231;-73
2022/09/07 07:50:02;;;;;;;5.47;2.90;;;;;;;17.09;100.00;100719.13;5023469;28;20623;-72
2022/09/07 07:52:32;;;;;;;4.67;3.27;;;;;;;17.26;100.00;100720.88;5015688;28;20217;-71
2022/09/07 07:55:01;;;;;;;4.33;3.03;;;;;;;17.41;100.00;100741.13;5010127;28;20204;-71
2022/09/07 07:57:27;;;;;;;5.80;3.20;;;;;;;17.49;100.00;100738.13;5023029;28;20249;-70
2022/09/07 07:59:54;;;;;;;4.73;3.30;;;;;;;17.57;100.00;100744.69;5005669;28;20655;-70
2022/09/07 08:02:21;;;;;;;5.13;3.23;;;;;;;17.70;100.00;100750.13;5011696;28;20849;-73
2022/09/07 08:04:47;;;;;;;4.33;3.03;;;;;;;17.76;100.00;100756.84;5007302;28;20268;-73
2022/09/07 08:07:14;;;;;;;4.83;3.17;;;;;;;17.82;100.00;100753.03;5015969;28;20220;-73
2022/09/07 08:09:43;;;;;;;4.67;3.30;;;;;;;17.92;100.00;100744.59;5025537;28;20267;-73
2022/09/07 08:12:15;;;;;;;4.33;3.23;;;;;;;18.08;100.00;100741.09;5009680;28;20674;-73
2022/09/07 08:14:42;;;;;;;8.93;3.60;;;;;;;18.17;100.00;100737.94;5008005;28;20192;-73
2022/09/07 08:17:09;;;;;;;4.37;3.40;;;;;;;18.29;100.00;100728.47;5002636;28;20211;-73
2022/09/07 08:19:36;;;;;;;4.27;3.30;;;;;;;18.44;100.00;100719.69;5014834;28;20720;-73
2022/09/07 08:22:03;;;;;;;5.90;2.80;;;;;;;18.60;100.00;100713.53;5010568;28;20205;-72
2022/09/07 08:24:30;;;;;;;3.03;2.73;;;;;;;18.70;100.00;100712.88;4999160;28;20196;-72
2022/09/07 08:26:57;;;;;;;4.60;3.23;;;;;;;18.74;100.00;100711.75;5011066;28;20198;-72
2022/09/07 08:29:25;;;;;;;6.27;2.87;;;;;;;18.95;100.00;100718.56;5007137;28;20223;-73
2022/09/07 08:31:51;;;;;;;3.93;3.20;;;;;;;19.09;100.00;100719.41;5009857;28;20605;-71
2022/09/07 08:34:17;;;;;;;4.57;3.47;;;;;;;19.14;100.00;100718.28;5003118;28;20250;-72
2022/09/07 08:36:44;;;;;;;3.90;3.40;;;;;;;19.27;100.00;100714.78;5002996;28;20255;-72
2022/09/07 08:39:11;;;;;;;5.33;3.30;;;;;;;19.46;100.00;100716.31;5018245;28;20646;-73
2022/09/07 08:41:52;;;;;;;6.43;3.50;;;;;;;19.56;100.00;100714.81;5007453;28;20577;-73
2022/09/07 08:44:24;;;;;;;5.60;4.07;;;;;;;19.61;100.00;100707.44;5016963;28;20230;-72
2022/09/07 08:46:55;;;;;;;3.57;3.07;;;;;;;19.68;100.00;100703.47;5024861;28;20200;-73
2022/09/07 08:49:31;;;;;;;6.43;3.57;;;;;;;19.76;100.00;100695.06;5026247;28;20579;-71
2022/09/07 08:52:03;;;;;;;4.20;3.27;;;;;;;20.02;100.00;100684.63;5006217;28;20219;-72
2022/09/07 08:54:29;;;;;;;3.70;3.30;;;;;;;20.29;100.00;100687.22;5022256;28;20274;-72
2022/09/07 08:57:01;;;;;;;3.67;3.00;;;;;;;20.41;100.00;100694.38;5004965;28;20221;-70
2022/09/07 08:59:39;;;;;;;6.47;3.90;;;;;;;20.49;100.00;100687.72;5008837;28;20231;-71
2022/09/07 09:02:13;;;;;;;5.10;3.43;;;;;;;20.48;100.00;100694.81;5002478;28;20585;-73
2022/09/07 09:04:41;;;;;;;5.20;3.30;;;;;;;20.42;100.00;100701.38;5004277;28;20205;-73
2022/09/07 09:07:15;;;;;;;4.53;3.47;;;;;;;20.46;100.00;100702.00;5017610;28;20201;-72
2022/09/07 09:10:07;;;;;;;4.43;3.30;;;;;;;20.65;100.00;100703.44;5017641;28;20564;-73
2022/09/07 09:12:54;;;;;;;4.63;3.33;;;;;;;20.75;100.00;100699.22;5002328;28;20295;-72
2022/09/07 09:15:25;;;;;;;3.97;3.40;;;;;;;20.88;100.00;100705.41;5014713;28;20665;-73
2022/09/07 09:18:00;;;;;;;4.77;3.57;;;;;;;21.01;100.00;100696.63;5010376;28;20232;-71
2022/09/07 09:20:34;;;;;;;3.87;3.10;;;;;;;21.27;100.00;100689.50;5009100;28;20678;-71
2022/09/07 09:23:06;;;;;;;6.23;3.80;;;;;;;21.32;99.93;100682.91;5011291;28;20192;-72
2022/09/07 09:25:34;;;;;;;5.87;4.10;;;;;;;21.26;99.62;100680.69;4999202;28;20268;-73
2022/09/07 09:28:01;;;;;;;5.43;3.83;;;;;;;21.20;99.96;100681.13;5009066;28;20232;-73
2022/09/07 09:30:28;;;;;;;4.17;3.77;;;;;;;21.21;100.00;100684.63;5021457;28;20211;-71
2022/09/07 09:33:15;;;;;;;9.07;4.40;;;;;;;21.29;100.00;100683.13;5015918;28;20212;-73
2022/09/07 09:35:42;;;;;;;4.77;3.87;;;;;;;21.28;99.50;100676.16;5007550;28;20227;-73
2022/09/07 09:38:32;;;;;;;5.23;3.93;;;;;;;21.39;100.00;100675.38;5007530;28;20743;-73
2022/09/07 09:41:02;;;;;;;5.37;3.77;;;;;;;21.44;100.00;100670.59;5005778;28;20220;-73
2022/09/07 09:43:37;;;;;;;5.77;3.47;;;;;;;21.53;100.00;100669.13;5010075;28;20818;-72
2022/09/07 09:46:04;;;;;;;8.17;4.20;;;;;;;21.73;100.00;100665.03;5010792;28;20658;-73
2022/09/07 09:48:39;;;;;;;4.53;4.03;;;;;;;21.98;100.00;100668.56;5024522;28;20709;-73
2022/09/07 09:51:08;;;;;;;5.20;4.57;;;;;;;22.17;100.00;100654.78;5012042;28;20204;-70
2022/09/07 09:53:39;;;;;;;6.82;4.35;;;;;;;22.39;100.00;100656.69;5015571;28;20196;-73
2022/09/07 09:56:07;;;;;;;4.83;4.30;;;;;;;22.51;98.17;100661.06;5009655;28;20941;-72
2022/09/07 09:58:36;;;;;;;4.50;4.03;;;;;;;22.57;96.62;100665.09;5010264;28;20226;-74
2022/09/07 10:01:05;;;;;;;4.45;3.72;;;;;;;22.64;95.58;100666.31;5014460;28;20207;-72
2022/09/07 10:03:33;;;;;;;5.18;4.25;;;;;;;22.65;93.44;100668.00;5020491;28;20200;-72
2022/09/07 10:06:03;;;;;;;4.72;3.83;;;;;;;22.77;93.63;100663.56;5031309;28;20255;-72
2022/09/07 10:08:32;;;;;;;4.75;3.90;;;;;;;22.86;92.83;100655.72;5026170;28;20211;-74
2022/09/07 10:11:01;;;;;;;5.85;4.38;;;;;;;22.75;92.74;100654.88;5024301;28;20219;-71
2022/09/07 10:13:31;;;;;;;4.68;3.72;;;;;;;22.84;93.90;100659.47;5010821;28;20675;-73
2022/09/07 10:15:59;;;;;;;6.68;4.68;;;;;;;23.13;95.60;100656.38;5016672;28;20224;-73
2022/09/07 10:18:34;;;;;;;5.15;4.45;;;;;;;23.43;94.70;100650.47;5013711;28;20259;-73
2022/09/07 10:21:30;;;;;;;7.38;4.63;;;;;;;23.66;91.21;100653.06;5023337;28;20296;-71
2022/09/07 10:23:59;;;;;;;5.63;4.35;;;;;;;23.74;92.72;100645.31;4968690;28;20275;-74
2022/09/07 10:26:29;;;;;;;7.78;4.75;;;;;;;23.51;91.41;100636.53;5019645;28;20205;-72
2022/09/07 10:29:13;;;;;;;6.05;4.47;;;;;;;23.47;91.82;100643.91;5004794;28;20271;-71
2022/09/07 10:31:50;;;;;;;5.20;4.57;;;;;;;23.43;92.50;100638.00;5011743;28;20212;-72
2022/09/07 10:34:23;;;;;;;5.60;3.95;;;;;;;23.48;91.68;100634.09;5012533;28;20230;-73
2022/09/07 10:36:58;;;;;;;5.70;3.85;;;;;;;23.56;90.73;100631.69;5010999;28;20692;-72
2022/09/07 10:39:27;;;;;;;4.50;4.10;;;;;;;23.52;91.40;100628.44;5031303;28;20228;-74
2022/09/07 10:42:02;;;;;;;7.95;3.92;;;;;;;23.53;90.19;100623.94;4999856;28;20212;-71
2022/09/07 10:44:41;;;;;;;6.03;4.57;;;;;;;23.54;88.89;100628.31;5011587;28;20207;-73
2022/09/07 10:47:18;;;;;;;4.90;4.10;;;;;;;23.52;89.19;100632.91;5025591;28;20216;-72
2022/09/07 10:49:49;;;;;;;6.15;4.43;;;;;;;23.50;88.81;100635.69;5012528;28;20212;-72
2022/09/07 10:52:24;;;;;;;4.85;4.40;;;;;;;23.65;91.80;100630.09;5025766;28;20196;-74
2022/09/07 10:54:54;;;;;;;3.80;3.45;;;;;;;23.79;91.19;100630.63;5014229;28;20196;-72
2022/09/07 10:57:32;;;;;;;6.68;4.75;;;;;;;23.90;89.38;100635.13;5010165;28;20235;-72
2022/09/07 11:00:04;;;;;;;6.57;4.45;;;;;;;24.00;90.69;100629.88;5009367;28;20230;-73
2022/09/07 11:02:39;;;;;;;6.60;4.45;;;;;;;24.15;90.71;100635.75;5007427;28;20746;-73
2022/09/07 11:05:16;;;;;;;5.15;4.03;;;;;;;24.29;89.90;100629.25;5016664;28;20226;-73
2022/09/07 11:08:07;;;;;;;5.82;4.70;;;;;;;24.46;90.27;100631.34;5018117;28;20208;-73
2022/09/07 11:10:42;;;;;;;5.05;4.07;;;;;;;24.57;86.82;100633.13;5013640;28;20204;-74
2022/09/07 11:13:14;;;;;;;5.20;4.45;;;;;;;24.73;88.36;100630.00;5011820;28;20258;-74
2022/09/07 11:15:45;;;;;;;6.78;4.65;;;;;;;24.99;88.11;100627.75;5005720;28;20196;-74
2022/09/07 11:18:16;;;;;;;5.22;4.50;;;;;;;25.26;86.00;100624.53;5013119;28;20950;-74
2022/09/07 11:20:49;;;;;;;5.57;4.00;;;;;;;25.47;84.32;100620.91;5016203;28;20195;-73
2022/09/07 11:23:24;;;;;;;4.88;4.32;;;;;;;25.55;83.43;100629.09;5009832;28;20200;-73
2022/09/07 11:25:57;;;;;;;4.70;4.30;;;;;;;25.55;82.43;100631.78;5004271;28;20211;-74
2022/09/07 11:28:27;;;;;;;5.22;4.72;;;;;;;25.50;83.27;100612.66;5012404;28;20241;-74
2022/09/07 11:30:59;;;;;;;5.45;4.55;;;;;;;25.60;82.88;100615.34;5021560;28;20821;-75
2022/09/07 11:33:29;;;;;;;4.88;4.47;;;;;;;25.59;81.22;100614.50;5004757;28;20192;-74